Time;durP1;ratioP1;P1;durP2;ratioP2;P2;SDS_P1;SDS_P2;PMS_P1;PMS_P2;Temp;Humidity;BMP_temperature;BMP_pressure;BME280_temperature;BME280_humidity;BME280_pressure;Samples;Min_cycle;Max_cycle;Signal;HPM_P1;HPM_P2
2022/12/06 00:01:28;;;;;;;;;;;;;;;11.83;49.74;100834.84;4972991;27;97828;-65
2022/12/06 00:03:55;;;;;;;;;;;;;;;11.83;49.75;100825.88;4962439;27;100707;-66
2022/12/06 00:06:22;;;;;;;;;;;;;;;11.82;49.88;100832.34;4979961;27;98056;-65
2022/12/06 00:08:48;;;;;;;;;;;;;;;11.82;49.84;100822.38;4975076;27;97958;-63
2022/12/06 00:11:16;;;;;;;;;;;;;;;11.82;49.75;100832.34;4974237;27;121667;-66
2022/12/06 00:13:42;;;;;;;;;;;;;;;11.82;49.78;100833.16;4974246;27;98265;-65
2022/12/06 00:16:13;;;;;;;;;;;;;;;11.82;49.92;100832.34;4975478;27;98171;-65
2022/12/06 00:18:39;;;;;;;;;;;;;;;11.82;49.83;100832.34;4977728;27;115617;-64
2022/12/06 00:21:09;;;;;;;;;;;;;;;11.81;49.62;100836.97;4973466;27;99076;-64
2022/12/06 00:23:36;;;;;;;;;;;;;;;11.80;49.78;100830.75;4977666;27;114344;-65
2022/12/06 00:26:02;;;;;;;;;;;;;;;11.81;49.80;100836.97;4978631;27;98088;-65
2022/12/06 00:28:28;;;;;;;;;;;;;;;11.80;49.86;100835.34;4976192;27;97975;-64
2022/12/06 00:31:02;;;;;;;;;;;;;;;11.80;49.69;100838.84;4974911;27;128030;-64
2022/12/06 00:33:28;;;;;;;;;;;;;;;11.80;49.61;100836.16;4974899;27;97942;-64
2022/12/06 00:36:05;;;;;;;;;;;;;;;11.79;49.93;100845.34;4976902;27;128285;-64
2022/12/06 00:38:30;;;;;;;;;;;;;;;11.80;49.62;100844.25;4961395;27;113158;-66
2022/12/06 00:41:16;;;;;;;;;;;;;;;11.79;49.80;100839.13;4968921;27;98342;-64
2022/12/06 00:43:42;;;;;;;;;;;;;;;11.80;49.77;100832.63;4976307;27;121210;-64
2022/12/06 00:46:09;;;;;;;;;;;;;;;11.79;49.75;100828.31;4976372;27;127223;-66
2022/12/06 00:48:35;;;;;;;;;;;;;;;11.79;49.85;100831.03;4961899;28;117087;-64
2022/12/06 00:51:01;;;;;;;;;;;;;;;11.78;49.99;100832.88;4974709;27;127544;-65
2022/12/06 00:53:27;;;;;;;;;;;;;;;11.77;49.86;100828.56;4975862;27;124437;-66
2022/12/06 00:55:56;;;;;;;;;;;;;;;11.78;49.74;100826.69;4976076;27;128329;-64
2022/12/06 00:58:22;;;;;;;;;;;;;;;11.77;49.81;100833.97;4977934;27;97791;-66
2022/12/06 01:00:48;;;;;;;;;;;;;;;11.76;49.90;100834.25;4973346;27;111492;-64
2022/12/06 01:03:14;;;;;;;;;;;;;;;11.76;49.61;100826.16;4974654;27;98160;-64
2022/12/06 01:05:44;;;;;;;;;;;;;;;11.75;49.67;100824.50;4975023;27;127978;-64
2022/12/06 01:08:10;;;;;;;;;;;;;;;11.73;49.52;100826.66;4979764;27;116131;-64
2022/12/06 01:10:36;;;;;;;;;;;;;;;11.74;49.85;100833.69;4973903;27;114079;-64
2022/12/06 01:13:02;;;;;;;;;;;;;;;11.73;49.80;100827.47;4974423;27;100549;-64
2022/12/06 01:15:28;;;;;;;;;;;;;;;11.75;49.70;100832.59;4972822;27;98752;-66
2022/12/06 01:17:54;;;;;;;;;;;;;;;11.74;49.86;100828.28;4942278;28;118736;-66
2022/12/06 01:20:20;;;;;;;;;;;;;;;11.73;49.77;100823.97;4975642;27;128331;-67
2022/12/06 01:22:46;;;;;;;;;;;;;;;11.73;49.67;100818.56;4941234;27;128067;-64
2022/12/06 01:25:12;;;;;;;;;;;;;;;11.73;49.61;100815.88;4980812;27;98500;-66
2022/12/06 01:27:38;;;;;;;;;;;;;;;11.72;49.87;100814.25;4965163;28;118086;-64
2022/12/06 01:30:04;;;;;;;;;;;;;;;11.71;49.91;100809.91;4977319;27;112087;-64
2022/12/06 01:32:30;;;;;;;;;;;;;;;11.70;49.67;100803.69;4976476;27;99477;-65
2022/12/06 01:34:56;;;;;;;;;;;;;;;11.71;49.63;100801.81;4962455;27;126922;-67
2022/12/06 01:37:22;;;;;;;;;;;;;;;11.71;49.87;100816.16;4930139;27;118478;-64
2022/12/06 01:39:48;;;;;;;;;;;;;;;11.70;49.72;100811.81;4947836;27;128335;-66
2022/12/06 01:42:15;;;;;;;;;;;;;;;11.68;49.73;100808.56;4975141;27;127398;-64
2022/12/06 01:44:50;;;;;;;;;;;;;;;11.70;49.78;100805.59;4963126;28;98016;-65
2022/12/06 01:47:24;;;;;;;;;;;;;;;11.70;49.69;100800.19;4980123;27;117220;-64
2022/12/06 01:50:10;;;;;;;;;;;;;;;11.68;49.68;100796.97;4964075;27;98542;-64
2022/12/06 01:52:58;;;;;;;;;;;;;;;11.69;49.68;100793.97;4964571;27;98648;-64
2022/12/06 01:55:27;;;;;;;;;;;;;;;11.67;49.82;100796.16;4969622;27;128436;-66
2022/12/06 01:57:54;;;;;;;;;;;;;;;11.67;49.59;100790.75;4976314;27;98092;-67
2022/12/06 02:00:20;;;;;;;;;;;;;;;11.68;49.55;100792.38;4971979;27;127385;-64
2022/12/06 02:02:46;;;;;;;;;;;;;;;11.68;49.83;100783.47;4977411;27;128141;-66
2022/12/06 02:05:12;;;;;;;;;;;;;;;11.67;49.69;100779.94;4978512;27;98404;-65
2022/12/06 02:07:38;;;;;;;;;;;;;;;11.66;49.67;100775.59;4962666;28;114392;-64
2022/12/06 02:10:04;;;;;;;;;;;;;;;11.66;49.68;100770.22;4977024;27;129041;-66
2022/12/06 02:12:30;;;;;;;;;;;;;;;11.66;49.77;100767.50;4975088;27;128684;-64
2022/12/06 02:14:56;;;;;;;;;;;;;;;11.66;49.74;100767.50;4976853;27;126356;-66
2022/12/06 02:17:43;;;;;;;;;;;;;;;11.66;49.69;100762.09;4980253;27;117384;-64
2022/12/06 02:20:18;;;;;;;;;;;;;;;11.66;49.84;100750.50;4979402;27;98391;-65
2022/12/06 02:23:15;;;;;;;;;;;;;;;11.66;49.77;100753.19;4977061;27;98258;-66
2022/12/06 02:26:19;;;;;;;;;;;;;;;11.64;49.75;100742.69;4977846;27;98317;-63
2022/12/06 02:28:45;;;;;;;;;;;;;;;11.65;49.67;100744.28;4900475;28;101396;-64
2022/12/06 02:31:26;;;;;;;;;;;;;;;11.64;49.91;100739.97;4897259;28;104756;-66
2022/12/06 02:33:54;;;;;;;;;;;;;;;11.65;49.68;100743.47;4923303;27;126323;-65
2022/12/06 02:36:28;;;;;;;;;;;;;;;11.62;49.81;100735.91;4976804;27;127777;-64
2022/12/06 02:39:02;;;;;;;;;;;;;;;11.61;49.90;100742.41;4958206;28;118872;-65
2022/12/06 02:41:39;;;;;;;;;;;;;;;11.61;49.73;100737.00;4942764;27;98404;-66
2022/12/06 02:44:06;;;;;;;;;;;;;;;11.60;49.88;100740.78;4962890;27;120860;-66
2022/12/06 02:46:34;;;;;;;;;;;;;;;11.59;49.81;100734.53;4955247;27;123395;-66
2022/12/06 02:49:01;;;;;;;;;;;;;;;11.57;49.85;100733.22;4948408;28;106706;-65
2022/12/06 02:51:27;;;;;;;;;;;;;;;11.57;49.89;100738.63;4961201;27;98537;-66
2022/12/06 02:53:53;;;;;;;;;;;;;;;11.56;49.83;100743.22;4966287;28;126461;-66
2022/12/06 02:56:19;;;;;;;;;;;;;;;11.54;49.62;100738.06;4963936;27;126530;-64
2022/12/06 02:58:45;;;;;;;;;;;;;;;11.54;49.71;100742.66;4963523;27;118274;-66
2022/12/06 03:01:16;;;;;;;;;;;;;;;11.53;49.70;100735.63;4974635;27;126093;-65
2022/12/06 03:04:30;;;;;;;;;;;;;;;11.53;49.74;100738.34;4976491;27;126376;-64
2022/12/06 03:07:08;;;;;;;;;;;;;;;11.53;49.76;100731.03;4900262;28;98226;-64
2022/12/06 03:09:45;;;;;;;;;;;;;;;11.53;49.80;100733.75;4971364;27;97999;-64
2022/12/06 03:12:23;;;;;;;;;;;;;;;11.52;49.82;100724.03;4977844;27;99873;-64
2022/12/06 03:15:09;;;;;;;;;;;;;;;11.53;49.90;100717.53;4978593;27;99251;-64
2022/12/06 03:17:58;;;;;;;;;;;;;;;11.53;49.39;100722.94;4960687;27;98382;-65
2022/12/06 03:20:31;;;;;;;;;;;;;;;11.54;49.84;100716.47;4976550;27;97945;-64
2022/12/06 03:23:03;;;;;;;;;;;;;;;11.54;49.90;100702.16;4960687;27;128155;-66
2022/12/06 03:25:30;;;;;;;;;;;;;;;11.54;49.69;100708.34;4957980;27;119581;-66
2022/12/06 03:27:56;;;;;;;;;;;;;;;11.55;49.63;100701.91;4963923;27;114890;-65
2022/12/06 03:30:22;;;;;;;;;;;;;;;11.56;49.73;100705.41;4946740;27;118309;-66
2022/12/06 03:32:48;;;;;;;;;;;;;;;11.55;49.78;100698.38;4959705;28;126835;-64
2022/12/06 03:35:15;;;;;;;;;;;;;;;11.57;49.89;100703.50;4951985;27;98924;-65
2022/12/06 03:37:42;;;;;;;;;;;;;;;11.57;49.65;100690.03;4959102;27;98654;-64
2022/12/06 03:40:15;;;;;;;;;;;;;;;11.57;49.64;100693.53;4944194;28;108062;-65
2022/12/06 03:42:41;;;;;;;;;;;;;;;11.58;49.97;100697.03;4962374;27;99663;-66
2022/12/06 03:45:08;;;;;;;;;;;;;;;11.57;49.76;100695.41;4973686;27;128310;-66
2022/12/06 03:47:45;;;;;;;;;;;;;;;11.57;49.68;100690.03;4964757;27;122932;-64
2022/12/06 03:50:18;;;;;;;;;;;;;;;11.58;49.60;100697.03;4977089;27;97971;-65
2022/12/06 03:52:44;;;;;;;;;;;;;;;11.57;49.87;100695.41;4962205;27;102522;-64
2022/12/06 03:55:10;;;;;;;;;;;;;;;11.58;49.83;100691.63;4970221;27;125982;-65
2022/12/06 03:57:36;;;;;;;;;;;;;;;11.57;49.80;100696.22;4982661;27;105014;-64
2022/12/06 04:00:02;;;;;;;;;;;;;;;11.58;49.71;100687.03;4980395;27;98060;-64
2022/12/06 04:02:28;;;;;;;;;;;;;;;11.58;49.82;100697.84;4976454;27;98307;-66
2022/12/06 04:04:54;;;;;;;;;;;;;;;11.57;49.65;100698.91;4959122;27;127182;-64
2022/12/06 04:07:21;;;;;;;;;;;;;;;11.58;49.70;100694.31;4976810;27;128771;-64
2022/12/06 04:10:03;;;;;;;;;;;;;;;11.58;49.76;100695.13;4980249;27;97919;-66
2022/12/06 04:15:15;;;;;;;;;;;;;;;11.58;49.63;100703.25;4977019;27;99595;-65
2022/12/06 04:20:25;;;;;;;;;;;;;;;11.59;49.67;100701.34;4974775;27;99232;-65
2022/12/06 04:23:04;;;;;;;;;;;;;;;11.58;49.76;100702.44;4955558;27;125903;-65
2022/12/06 04:25:34;;;;;;;;;;;;;;;11.54;49.68;100691.34;4973135;27;98939;-64
2022/12/06 04:38:58;;;;;;;;;;;;;;;11.49;49.66;100684.06;4978399;27;97979;-66
2022/12/06 04:44:08;;;;;;;;;;;;;;;11.49;49.63;100683.25;4976089;27;98158;-64
2022/12/06 04:46:34;;;;;;;;;;;;;;;11.49;49.59;100675.16;4975173;27;128343;-64
2022/12/06 04:49:00;;;;;;;;;;;;;;;11.49;49.78;100675.97;4975707;27;128079;-67
2022/12/06 04:51:26;;;;;;;;;;;;;;;11.50;49.73;100679.47;4955297;27;116481;-64
2022/12/06 04:53:52;;;;;;;;;;;;;;;11.50;49.65;100679.47;4971192;27;127280;-65
2022/12/06 04:56:18;;;;;;;;;;;;;;;11.50;49.67;100674.06;4978387;27;128109;-64
2022/12/06 04:58:44;;;;;;;;;;;;;;;11.50;49.71;100674.88;4979502;27;101229;-65
2022/12/06 05:01:10;;;;;;;;;;;;;;;11.51;49.65;100672.97;4978720;27;98097;-64
2022/12/06 05:03:36;;;;;;;;;;;;;;;11.51;49.65;100671.13;4977324;27;125079;-66
2022/12/06 05:06:02;;;;;;;;;;;;;;;11.50;49.57;100668.66;4976344;27;127007;-64
2022/12/06 05:08:27;;;;;;;;;;;;;;;11.52;49.84;100671.94;4980658;27;121994;-65
2022/12/06 05:10:53;;;;;;;;;;;;;;;11.52;49.56;100669.22;4979932;27;118352;-65
2022/12/06 05:13:19;;;;;;;;;;;;;;;11.52;49.72;100671.94;4975746;27;128103;-64
2022/12/06 05:15:56;;;;;;;;;;;;;;;11.52;49.78;100674.63;4977982;27;98795;-66
2022/12/06 05:18:22;;;;;;;;;;;;;;;11.53;49.79;100671.66;4978792;27;98757;-65
2022/12/06 05:20:48;;;;;;;;;;;;;;;11.53;49.85;100668.94;4980716;27;99299;-64
2022/12/06 05:23:14;;;;;;;;;;;;;;;11.54;49.57;100662.47;4957380;27;128217;-65
2022/12/06 05:25:40;;;;;;;;;;;;;;;11.55;49.82;100668.66;4977560;27;127624;-65
2022/12/06 05:28:07;;;;;;;;;;;;;;;11.54;49.92;100667.84;4978567;27;127236;-64
2022/12/06 05:30:34;;;;;;;;;;;;;;;11.54;49.75;100665.16;4982721;27;98389;-66
2022/12/06 05:32:59;;;;;;;;;;;;;;;11.55;49.60;100668.66;4965313;28;110131;-66
2022/12/06 05:35:25;;;;;;;;;;;;;;;11.54;49.60;100667.84;4977728;27;109109;-64
2022/12/06 05:37:51;;;;;;;;;;;;;;;11.55;49.79;100674.91;4983572;27;127254;-65
2022/12/06 05:40:17;;;;;;;;;;;;;;;11.55;49.58;100676.75;4978119;27;117751;-65
2022/12/06 05:42:43;;;;;;;;;;;;;;;11.53;49.82;100671.66;4979450;27;121194;-64
2022/12/06 05:45:10;;;;;;;;;;;;;;;11.54;49.77;100667.84;4954699;27;128630;-66
2022/12/06 05:47:36;;;;;;;;;;;;;;;11.55;49.75;100668.66;4976273;27;127438;-64
2022/12/06 05:50:02;;;;;;;;;;;;;;;11.56;49.83;100664.91;4978371;27;120081;-64
2022/12/06 05:52:28;;;;;;;;;;;;;;;11.55;49.78;100669.50;4978922;27;124876;-66
2022/12/06 05:54:54;;;;;;;;;;;;;;;11.54;49.84;100667.06;4975881;27;127600;-66
2022/12/06 05:57:20;;;;;;;;;;;;;;;11.55;49.71;100672.22;4971956;27;127627;-65
2022/12/06 05:59:46;;;;;;;;;;;;;;;11.55;49.81;100671.38;4983509;27;118784;-66
2022/12/06 06:02:11;;;;;;;;;;;;;;;11.56;49.78;100670.31;4979475;27;128045;-64
2022/12/06 06:04:37;;;;;;;;;;;;;;;11.56;49.65;100662.22;4977222;27;127083;-65
2022/12/06 06:07:03;;;;;;;;;;;;;;;11.56;49.66;100656.81;4980826;27;128219;-64
2022/12/06 06:09:29;;;;;;;;;;;;;;;11.55;49.70;100664.09;4976472;27;117611;-66
2022/12/06 06:11:55;;;;;;;;;;;;;;;11.57;49.64;100665.72;4979338;27;127046;-64
2022/12/06 06:14:21;;;;;;;;;;;;;;;11.57;49.67;100657.63;4981016;27;128836;-66
2022/12/06 06:16:47;;;;;;;;;;;;;;;11.57;49.71;100660.31;4978968;27;98390;-66
2022/12/06 06:19:13;;;;;;;;;;;;;;;11.55;49.76;100658.72;4978305;27;116431;-65
2022/12/06 06:21:39;;;;;;;;;;;;;;;11.55;49.79;100660.56;4974781;27;127679;-66
2022/12/06 06:24:05;;;;;;;;;;;;;;;11.56;49.74;100670.31;4962574;28;128204;-64
2022/12/06 06:26:31;;;;;;;;;;;;;;;11.56;49.67;100664.91;4942670;27;119132;-64
2022/12/06 06:28:57;;;;;;;;;;;;;;;11.56;49.68;100664.91;4963680;27;117464;-65
2022/12/06 06:31:23;;;;;;;;;;;;;;;11.56;49.70;100675.72;4965695;27;110896;-64
2022/12/06 06:33:49;;;;;;;;;;;;;;;11.57;49.71;100671.13;4974038;27;128057;-64
2022/12/06 06:36:15;;;;;;;;;;;;;;;11.57;49.71;100673.81;4971932;27;125993;-66
2022/12/06 06:38:41;;;;;;;;;;;;;;;11.55;49.52;100672.22;4954523;27;115372;-65
2022/12/06 06:41:06;;;;;;;;;;;;;;;11.56;49.77;100670.31;4974431;27;128691;-64
2022/12/06 06:43:32;;;;;;;;;;;;;;;11.55;49.70;100674.91;4972691;27;128172;-66
2022/12/06 06:46:00;;;;;;;;;;;;;;;11.55;49.59;100674.91;4974583;27;124816;-65
2022/12/06 06:48:27;;;;;;;;;;;;;;;11.54;49.60;100673.25;4975552;27;97824;-64
2022/12/06 06:50:53;;;;;;;;;;;;;;;11.54;49.87;100672.47;4974838;27;99120;-64
2022/12/06 06:53:19;;;;;;;;;;;;;;;11.54;49.46;100672.47;4969959;27;127916;-65
2022/12/06 06:55:45;;;;;;;;;;;;;;;11.54;49.60;100673.25;4974693;27;112798;-66
2022/12/06 06:58:13;;;;;;;;;;;;;;;11.54;49.64;100675.16;4971723;27;98295;-66
2022/12/06 07:00:41;;;;;;;;;;;;;;;11.53;49.82;100674.34;4976901;27;98546;-64
2022/12/06 07:03:12;;;;;;;;;;;;;;;11.54;49.77;100681.34;4977535;27;101868;-64
2022/12/06 07:05:38;;;;;;;;;;;;;;;11.55;49.70;100676.75;4956992;27;98493;-64
2022/12/06 07:08:04;;;;;;;;;;;;;;;11.54;49.72;100672.47;4956265;28;118051;-65
2022/12/06 07:10:30;;;;;;;;;;;;;;;11.53;49.79;100673.53;4972899;27;129116;-66
2022/12/06 07:12:56;;;;;;;;;;;;;;;11.53;49.70;100674.34;4973870;27;124782;-65
2022/12/06 07:15:22;;;;;;;;;;;;;;;11.53;49.60;100674.34;4972147;27;127862;-65
2022/12/06 07:17:50;;;;;;;;;;;;;;;11.52;49.63;100670.03;4976191;27;117540;-65
2022/12/06 07:20:17;;;;;;;;;;;;;;;11.52;49.84;100670.03;4972745;27;98947;-66
2022/12/06 07:22:42;;;;;;;;;;;;;;;11.52;49.69;100667.34;4976177;27;98447;-64
2022/12/06 07:25:08;;;;;;;;;;;;;;;11.53;49.88;100668.16;4969382;27;127490;-64
2022/12/06 07:27:37;;;;;;;;;;;;;;;11.52;49.71;100661.94;4973240;27;117671;-64
2022/12/06 07:30:06;;;;;;;;;;;;;;;11.52;49.71;100669.22;4975929;27;98755;-64
2022/12/06 07:32:35;;;;;;;;;;;;;;;11.53;49.67;100662.75;4974755;27;99138;-67
2022/12/06 07:35:02;;;;;;;;;;;;;;;11.52;49.56;100670.03;4974113;27;98511;-66
2022/12/06 07:37:28;;;;;;;;;;;;;;;11.53;49.59;100662.75;4971296;27;98256;-65
2022/12/06 07:39:54;;;;;;;;;;;;;;;11.52;49.70;100664.63;4972896;27;98785;-64
2022/12/06 07:45:07;;;;;;;;;;;;;;;11.53;49.67;100655.44;4970725;27;97956;-65
2022/12/06 07:47:37;;;;;;;;;;;;;;;11.53;49.71;100660.84;4973241;27;98385;-66
2022/12/06 07:50:04;;;;;;;;;;;;;;;11.52;49.75;100674.63;4970325;27;123436;-66
2022/12/06 07:52:34;;;;;;;;;;;;;;;11.52;49.84;100671.94;4971610;27;114850;-64
2022/12/06 07:55:00;;;;;;;;;;;;;;;11.59;49.98;100671.63;4971673;27;97988;-66
2022/12/06 07:57:26;;;;;;;;;;;;;;;11.65;49.75;100679.50;4955350;27;98122;-61
2022/12/06 07:59:52;;;;;;;;;;;;;;;11.71;49.84;100673.03;4957751;27;126790;-64
2022/12/06 08:02:19;;;;;;;;;;;;;;;11.76;49.75;100673.00;4971110;27;110436;-64
2022/12/06 08:04:45;;;;;;;;;;;;;;;11.80;49.61;100674.09;4953149;27;98258;-62
2022/12/06 08:07:11;;;;;;;;;;;;;;;11.81;49.83;100680.31;4966134;27;99007;-64
2022/12/06 08:09:37;;;;;;;;;;;;;;;11.83;49.84;100680.88;4971525;27;128506;-62
2022/12/06 08:12:03;;;;;;;;;;;;;;;11.84;49.78;100674.41;4970047;27;127296;-62
2022/12/06 08:14:28;;;;;;;;;;;;;;;11.86;49.82;100682.22;4975444;27;127207;-62
2022/12/06 08:16:54;;;;;;;;;;;;;;;11.86;49.81;100674.94;4973403;27;105224;-62
2022/12/06 08:19:20;;;;;;;;;;;;;;;11.89;49.49;100673.59;4973606;27;128096;-62
2022/12/06 08:21:47;;;;;;;;;;;;;;;11.90;49.81;100676.00;4976885;27;124941;-62
2022/12/06 08:24:13;;;;;;;;;;;;;;;11.91;49.86;100677.66;4973956;27;98621;-62
2022/12/06 08:26:39;;;;;;;;;;;;;;;11.92;50.00;100676.56;4970653;27;98482;-64
2022/12/06 08:29:05;;;;;;;;;;;;;;;11.93;50.08;100670.06;4972032;27;127437;-64
2022/12/06 08:31:33;;;;;;;;;;;;;;;11.93;49.75;100672.75;4973623;27;128077;-64
2022/12/06 08:33:59;;;;;;;;;;;;;;;11.94;49.96;100665.47;4972471;27;97938;-64
2022/12/06 08:36:26;;;;;;;;;;;;;;;11.94;49.92;100679.78;4974653;27;112253;-64
2022/12/06 08:38:52;;;;;;;;;;;;;;;11.94;50.01;100666.28;4973180;27;98879;-64
2022/12/06 08:44:03;;;;;;;;;;;;;;;11.97;50.04;100663.03;4971068;27;98092;-62
2022/12/06 08:46:30;;;;;;;;;;;;;;;11.99;49.94;100665.47;4972785;27;114668;-62
2022/12/06 08:48:56;;;;;;;;;;;;;;;11.99;49.75;100660.09;4956722;27;112997;-64
2022/12/06 08:51:22;;;;;;;;;;;;;;;11.99;49.85;100666.28;4962504;27;99027;-62
2022/12/06 08:53:48;;;;;;;;;;;;;;;12.00;49.93;100659.00;4968585;27;128744;-65
2022/12/06 08:56:14;;;;;;;;;;;;;;;12.02;49.99;100664.91;4970196;27;117851;-64
2022/12/06 08:58:39;;;;;;;;;;;;;;;12.01;50.01;100660.59;4973209;27;99413;-64
2022/12/06 09:01:10;;;;;;;;;;;;;;;12.03;49.82;100663.84;4974452;27;127889;-64
2022/12/06 09:03:36;;;;;;;;;;;;;;;12.03;49.70;100659.25;4972698;27;98322;-65
2022/12/06 09:06:02;;;;;;;;;;;;;;;12.03;50.06;100664.66;4952769;28;98549;-62
2022/12/06 09:08:28;;;;;;;;;;;;;;;12.03;50.02;100653.06;4953193;27;125420;-63
2022/12/06 09:10:54;;;;;;;;;;;;;;;12.04;50.00;100658.16;4973758;27;128129;-64
2022/12/06 09:13:20;;;;;;;;;;;;;;;12.06;50.03;100657.88;4972479;27;126855;-64
2022/12/06 09:15:46;;;;;;;;;;;;;;;12.06;49.75;100654.38;4972981;27;118964;-64
2022/12/06 09:18:12;;;;;;;;;;;;;;;12.06;49.77;100655.19;4972405;27;127936;-62
2022/12/06 09:20:41;;;;;;;;;;;;;;;12.07;49.61;100654.13;4959686;27;121374;-62
2022/12/06 09:23:07;;;;;;;;;;;;;;;12.08;49.98;100658.44;4972492;27;126946;-63
2022/12/06 09:25:33;;;;;;;;;;;;;;;12.10;49.78;100653.56;4971920;27;117839;-62
2022/12/06 09:27:59;;;;;;;;;;;;;;;12.11;49.77;100649.78;4950899;28;128329;-64
2022/12/06 09:30:25;;;;;;;;;;;;;;;12.14;50.00;100643.81;4969864;27;127926;-65
2022/12/06 09:32:52;;;;;;;;;;;;;;;12.15;49.88;100642.75;4969765;27;126765;-62
2022/12/06 09:35:18;;;;;;;;;;;;;;;12.15;49.91;100640.06;4970864;27;98617;-64
2022/12/06 09:37:44;;;;;;;;;;;;;;;12.14;49.77;100643.81;4971242;27;121435;-65
2022/12/06 09:40:34;;;;;;;;;;;;;;;12.14;49.77;100640.31;4958575;28;127352;-62
2022/12/06 09:43:08;;;;;;;;;;;;;;;12.13;50.03;100644.09;4933783;28;98245;-64
2022/12/06 09:45:44;;;;;;;;;;;;;;;12.11;49.83;100644.38;4948240;28;97970;-65
2022/12/06 09:48:30;;;;;;;;;;;;;;;12.10;50.12;100639.25;4941331;28;125901;-62
2022/12/06 09:51:22;;;;;;;;;;;;;;;12.10;49.90;100648.16;4954296;27;99364;-64
2022/12/06 09:53:53;;;;;;;;;;;;;;;12.10;49.91;100636.53;4970671;27;98333;-62
2022/12/06 09:56:27;;;;;;;;;;;;;;;12.08;49.98;100626.00;4954845;28;99226;-62
2022/12/06 09:59:17;;;;;;;;;;;;;;;12.07;50.11;100624.41;4970716;27;124099;-64
2022/12/06 10:01:47;;;;;;;;;;;;;;;12.09;49.89;100626.81;4971118;27;98618;-62
2022/12/06 10:04:38;;;;;;;;;;;;;;;12.09;49.80;100624.94;4973895;27;99710;-64
2022/12/06 10:07:40;;;;;;;;;;;;;;;12.10;50.05;100626.53;4945717;28;97935;-64
2022/12/06 10:10:24;;;;;;;;;;;;;;;12.08;49.96;100615.22;4975688;27;100412;-65
2022/12/06 10:12:55;;;;;;;;;;;;;;;12.08;49.87;100607.09;4971062;27;98695;-62
2022/12/06 10:15:55;;;;;;;;;;;;;;;12.09;49.90;100605.22;4973652;27;98118;-65
2022/12/06 10:18:43;;;;;;;;;;;;;;;12.07;49.87;100608.19;4973598;27;98019;-65
2022/12/06 10:21:22;;;;;;;;;;;;;;;12.09;49.87;100597.91;4946369;28;127230;-62
2022/12/06 10:23:56;;;;;;;;;;;;;;;12.12;49.84;100599.25;4958551;27;124957;-65
2022/12/06 10:26:28;;;;;;;;;;;;;;;12.11;49.83;100587.66;4955305;27;119098;-62
2022/12/06 10:29:18;;;;;;;;;;;;;;;12.12;49.88;100591.97;4959935;27;98249;-63
2022/12/06 10:32:05;;;;;;;;;;;;;;;12.11;49.87;100589.53;4960630;27;98356;-62
2022/12/06 10:34:45;;;;;;;;;;;;;;;12.12;49.88;100591.97;4956576;27;122782;-64
2022/12/06 10:37:20;;;;;;;;;;;;;;;12.11;49.87;100584.13;4951785;28;98523;-64
2022/12/06 10:39:59;;;;;;;;;;;;;;;12.11;50.04;100589.53;4977352;27;98010;-62
2022/12/06 10:42:59;;;;;;;;;;;;;;;12.11;49.85;100593.06;4967856;27;98567;-64
2022/12/06 10:48:26;;;;;;;;;;;;;;;12.09;50.02;100592.50;4970760;27;97902;-61
2022/12/06 10:50:57;;;;;;;;;;;;;;;12.08;49.92;100590.09;4940868;28;113882;-65
2022/12/06 10:53:23;;;;;;;;;;;;;;;12.06;50.11;100582.22;4972138;27;120326;-62
2022/12/06 10:55:55;;;;;;;;;;;;;;;12.08;50.07;100581.97;4956453;28;128133;-62
2022/12/06 10:58:35;;;;;;;;;;;;;;;12.05;50.14;100583.31;4944016;27;116489;-64
2022/12/06 11:01:05;;;;;;;;;;;;;;;12.04;49.97;100582.53;4956585;28;98055;-64
2022/12/06 11:03:40;;;;;;;;;;;;;;;12.05;50.13;100583.31;4957787;27;123696;-63
2022/12/06 11:06:30;;;;;;;;;;;;;;;12.04;50.07;100582.53;4959481;28;98325;-63
2022/12/06 11:09:19;;;;;;;;;;;;;;;12.06;50.13;100579.53;4943966;27;106678;-62
2022/12/06 11:11:45;;;;;;;;;;;;;;;12.05;49.97;100580.63;4978156;27;98253;-65
2022/12/06 11:14:17;;;;;;;;;;;;;;;12.06;50.14;100582.22;4973205;27;127801;-62
2022/12/06 11:16:49;;;;;;;;;;;;;;;12.04;49.90;100571.72;4971970;27;124121;-62
2022/12/06 11:19:37;;;;;;;;;;;;;;;12.03;50.13;100572.81;4937651;28;123597;-62
2022/12/06 11:22:12;;;;;;;;;;;;;;;12.00;50.01;100561.72;4954538;27;98023;-65
2022/12/06 11:24:43;;;;;;;;;;;;;;;12.01;49.97;100569.56;4974044;27;98824;-62
2022/12/06 11:27:21;;;;;;;;;;;;;;;12.01;49.87;100564.16;4971376;27;98630;-62
2022/12/06 11:29:47;;;;;;;;;;;;;;;12.02;50.02;100563.09;4957189;27;98270;-64
2022/12/06 11:32:13;;;;;;;;;;;;;;;12.01;50.17;100561.44;4973783;27;102148;-62
2022/12/06 11:40:04;;;;;;;;;;;;;;;11.96;49.92;100556.06;5954208;22;99484;-65
2022/12/06 11:42:29;;;;;;;;;;;;;;;11.94;50.16;100562.81;4982980;28;98505;-68
2022/12/06 11:45:03;;;;;;;;;;;;;;;11.94;50.30;100566.31;4972585;28;127462;-67
2022/12/06 11:47:29;;;;;;;;;;;;;;;11.94;49.96;100562.81;4959591;28;98681;-67
2022/12/06 11:49:55;;;;;;;;;;;;;;;11.93;50.21;100566.59;4956234;28;127876;-68
2022/12/06 11:52:22;;;;;;;;;;;;;;;11.92;50.03;100565.81;4931557;28;98245;-68
2022/12/06 11:54:56;;;;;;;;;;;;;;;11.93;50.09;100564.72;4091588;28;10000886;-65
2022/12/06 11:57:36;;;;;;;;;;;;;;;11.93;50.19;100555.81;4957818;28;108475;-66
2022/12/06 12:00:14;;;;;;;;;;;;;;;11.93;50.33;100556.59;4952909;28;127779;-66
2022/12/06 12:02:41;;;;;;;;;;;;;;;11.93;50.08;100555.81;4955174;28;98477;-67
2022/12/06 12:05:08;;;;;;;;;;;;;;;11.91;49.92;100553.38;4942115;28;99038;-68
2022/12/06 12:07:34;;;;;;;;;;;;;;;11.93;50.30;100553.09;4959809;28;98343;-66
2022/12/06 12:10:01;;;;;;;;;;;;;;;11.92;50.20;100543.38;4954713;28;105053;-65
2022/12/06 12:15:26;;;;;;;;;;;;;;;11.93;50.10;100542.28;4961336;28;98411;-68
2022/12/06 12:17:52;;;;;;;;;;;;;;;11.97;50.03;100548.78;4959170;28;98192;-67
2022/12/06 12:20:20;;;;;;;;;;;;;;;12.00;50.11;100542.81;4948854;28;119717;-65
2022/12/06 12:22:46;;;;;;;;;;;;;;;12.02;50.12;100552.28;4948717;28;98201;-68
2022/12/06 12:25:23;;;;;;;;;;;;;;;12.03;49.84;100540.38;4954158;28;124589;-68
2022/12/06 12:27:50;;;;;;;;;;;;;;;12.04;49.98;100539.28;4951878;28;98014;-65
2022/12/06 12:30:23;;;;;;;;;;;;;;;12.06;49.95;100530.09;4956114;28;98442;-65
2022/12/06 12:33:17;;;;;;;;;;;;;;;12.08;50.04;100534.16;4970632;28;99423;-67
2022/12/06 12:36:08;;;;;;;;;;;;;;;12.08;49.83;100526.03;4955612;28;115258;-68
2022/12/06 12:38:59;;;;;;;;;;;;;;;12.08;49.96;100534.16;4957800;28;97830;-66
2022/12/06 12:41:32;;;;;;;;;;;;;;;12.09;49.97;100526.84;4944511;28;98414;-68
2022/12/06 12:44:03;;;;;;;;;;;;;;;12.09;49.99;100529.56;4955701;28;98138;-65
2022/12/06 12:46:30;;;;;;;;;;;;;;;12.09;49.98;100522.25;4954450;28;98266;-68
2022/12/06 12:49:19;;;;;;;;;;;;;;;12.10;49.86;100529.25;4955562;28;98392;-68
2022/12/06 12:51:45;;;;;;;;;;;;;;;12.09;50.02;100526.84;4967442;28;99621;-68
2022/12/06 12:54:20;;;;;;;;;;;;;;;12.08;49.94;100526.03;4918562;28;119608;-68
2022/12/06 12:56:46;;;;;;;;;;;;;;;12.08;49.91;100520.63;4956510;28;98081;-65
2022/12/06 12:59:17;;;;;;;;;;;;;;;12.08;49.98;100517.13;4941157;28;98315;-65
2022/12/06 13:01:57;;;;;;;;;;;;;;;12.08;49.89;100519.84;4936754;28;98369;-68
2022/12/06 13:04:36;;;;;;;;;;;;;;;12.09;50.03;100516.03;4955655;28;120360;-68
2022/12/06 13:07:11;;;;;;;;;;;;;;;12.09;49.81;100514.16;4971227;28;98684;-68
2022/12/06 13:09:46;;;;;;;;;;;;;;;12.08;50.15;100509.03;4921751;28;99213;-66
2022/12/06 13:12:31;;;;;;;;;;;;;;;12.06;50.00;100513.88;4952092;28;98846;-66
2022/12/06 13:15:13;;;;;;;;;;;;;;;12.05;50.23;100513.09;4952716;28;125156;-67
2022/12/06 13:17:40;;;;;;;;;;;;;;;12.03;50.08;100509.84;4956009;28;99906;-66
2022/12/06 13:20:25;;;;;;;;;;;;;;;12.04;50.18;100511.47;4957448;28;98090;-68
2022/12/06 13:22:52;;;;;;;;;;;;;;;12.03;50.19;100510.66;4941104;28;116164;-68